Airfield :
LOGIN :

Register | Disclaimer

   EN    FR    IT 

 










Legend :    VFR   Marginal VFR   IFR   Intensive IFR   Very Intensive IFR
Visi :
Ceiling :
>= 8 km
>= 3000ft
5 to 8 km
1000 to 3000 ft
1500m to 5 km
500 to 1000 ft
800 to 1500m
200 to 500 ft
< 800m
< 200 ft
Symbols :   Thunderstorms  Fog  Heavy snow  Heavy precipitations  Wind > 20 kt
SIGMETs :     Misc.  Thunderstorms  Icing  Turbulence  Mountain Waves  Volcanic Ashes






- Airport Elevation : 915 ft
- IATA code : LUG


LSZA - Lugano

CURRENT METAR :
  • 050050Z AUTO 36007KT 300V050 CAVOK 21/04 Q1012

EXPIRED METARs :
  • 050020Z AUTO 02011KT 340V080 CAVOK 22/03 Q1012
  • 042350Z AUTO 02010KT 350V080 CAVOK 22/04 Q1012
  • 042320Z AUTO 02012KT CAVOK 22/04 Q1012
  • 042250Z AUTO 02008KT 340V160 CAVOK 21/04 Q1012
  • 042220Z AUTO 01007KT 330V110 CAVOK 21/04 Q1012

Expired Forecast.
ATIS : +41 22 417 40 88



MET'MAP, your aeronautical weather chart ! - Copyright ORBIFLY December 2007 - Disclaimer

ORBIFLY MET'MAP TEAM :

Programming & Development : Alexandra Zaïnal
Concept & original design : Baudouin d'Aumeries
Assistance for programming : Marc-Olivier Méhu
Technical & hardware support : Manuel Goepfert

Contact : metmap@orbifly.com




SOURCES & CREDITS :

   NOAA